createdAt,value
2019-06-20T00:02:06.841Z,18.00
2019-06-20T00:04:37.410Z,18.10
2019-06-20T00:07:06.073Z,18.10
2019-06-20T00:09:34.817Z,18.00
2019-06-20T00:12:03.473Z,17.90
2019-06-20T00:14:32.189Z,17.70
2019-06-20T00:17:00.845Z,17.70
2019-06-20T00:19:29.635Z,17.70
2019-06-20T00:21:58.494Z,17.70
2019-06-20T00:24:27.222Z,17.70
2019-06-20T00:26:55.942Z,17.70
2019-06-20T00:29:24.772Z,17.60
2019-06-20T00:31:53.496Z,17.50
2019-06-20T00:34:22.218Z,17.50
2019-06-20T00:36:51.467Z,17.40
2019-06-20T00:39:20.393Z,17.50
2019-06-20T00:41:49.116Z,17.50
2019-06-20T00:44:17.831Z,17.50
2019-06-20T00:46:46.573Z,17.50
2019-06-20T00:49:15.300Z,17.50
2019-06-20T00:51:44.044Z,17.50
2019-06-20T00:54:12.760Z,17.50
2019-06-20T00:56:41.488Z,17.50
2019-06-20T00:59:10.221Z,17.50
2019-06-20T01:01:38.938Z,17.50
2019-06-20T01:04:08.330Z,17.60
2019-06-20T01:06:37.167Z,17.70
2019-06-20T01:09:08.393Z,17.90
2019-06-20T01:11:37.224Z,18.10
2019-06-20T01:14:05.922Z,18.20
2019-06-20T01:16:34.653Z,18.20
2019-06-20T01:19:03.452Z,18.30
2019-06-20T01:21:51.447Z,18.30
2019-06-20T01:24:20.165Z,18.40
2019-06-20T01:26:48.895Z,18.40
2019-06-20T01:29:17.609Z,18.40
2019-06-20T01:31:46.365Z,18.30
2019-06-20T01:34:15.084Z,18.30
2019-06-20T01:36:43.844Z,18.30
2019-06-20T01:39:12.562Z,18.20
2019-06-20T01:41:41.284Z,18.20
2019-06-20T01:44:10.067Z,18.30
2019-06-20T01:46:38.781Z,18.20
2019-06-20T01:49:07.504Z,18.30
2019-06-20T01:51:36.244Z,18.30
2019-06-20T01:54:05.086Z,18.30
2019-06-20T01:56:33.795Z,18.30
2019-06-20T01:59:02.645Z,18.30
2019-06-20T02:01:31.402Z,18.20
2019-06-20T02:04:00.120Z,18.20
2019-06-20T02:06:28.850Z,18.10
2019-06-20T02:08:57.582Z,18.10
2019-06-20T02:11:26.291Z,18.00
2019-06-20T02:14:06.763Z,18.00
2019-06-20T02:16:25.400Z,18.10
2019-06-20T02:18:54.120Z,18.00
2019-06-20T02:21:22.873Z,18.00
2019-06-20T02:23:51.604Z,18.00
2019-06-20T02:26:20.331Z,18.10
2019-06-20T02:28:48.977Z,18.10
2019-06-20T02:31:17.705Z,18.30
2019-06-20T02:33:46.453Z,18.40
2019-06-20T02:36:15.176Z,18.40
2019-06-20T02:38:43.894Z,18.40
2019-06-20T02:41:12.616Z,18.40
2019-06-20T02:43:41.393Z,18.40
2019-06-20T02:46:10.232Z,18.40
2019-06-20T02:48:38.876Z,18.60
2019-06-20T02:51:07.606Z,18.60
2019-06-20T02:53:36.616Z,18.60
2019-06-20T02:56:05.468Z,18.60
2019-06-20T02:58:34.201Z,18.70
2019-06-20T03:01:02.935Z,18.80
2019-06-20T03:03:31.652Z,18.90
2019-06-20T03:06:00.375Z,19.00
2019-06-20T03:08:29.202Z,19.20
2019-06-20T03:10:58.429Z,19.20
2019-06-20T03:13:27.151Z,19.20
2019-06-20T03:15:55.898Z,19.30
2019-06-20T03:18:24.613Z,19.30
2019-06-20T03:20:53.327Z,19.30
2019-06-20T03:23:22.051Z,19.40
2019-06-20T03:25:50.777Z,19.50
2019-06-20T03:28:19.501Z,19.60
2019-06-20T03:30:48.225Z,19.70
2019-06-20T03:33:16.983Z,19.80
2019-06-20T03:35:45.694Z,19.90
2019-06-20T03:38:14.411Z,20.00
2019-06-20T03:40:43.140Z,20.00
2019-06-20T03:43:11.862Z,20.10
2019-06-20T03:45:40.608Z,20.20
2019-06-20T03:48:09.328Z,20.40
2019-06-20T03:50:37.980Z,20.60
2019-06-20T03:53:06.691Z,20.70
2019-06-20T03:55:35.414Z,20.70
2019-06-20T03:58:04.300Z,20.90
2019-06-20T04:00:34.614Z,21.00
2019-06-20T04:03:04.932Z,21.20
2019-06-20T04:05:33.860Z,21.50
2019-06-20T04:08:02.580Z,21.60
2019-06-20T04:10:31.301Z,21.70
2019-06-20T04:13:00.025Z,22.00
2019-06-20T04:15:28.784Z,22.10
2019-06-20T04:17:57.501Z,22.10
2019-06-20T04:20:26.212Z,22.30
2019-06-20T04:22:54.939Z,22.40
2019-06-20T04:25:23.669Z,22.70
2019-06-20T04:27:52.411Z,23.10
2019-06-20T04:30:21.140Z,23.00
2019-06-20T04:32:49.847Z,23.20
2019-06-20T04:35:37.858Z,23.20
2019-06-20T04:38:06.578Z,23.60
2019-06-20T04:40:35.296Z,23.90
2019-06-20T04:43:04.028Z,24.90
2019-06-20T04:45:35.699Z,26.10
2019-06-20T04:48:04.752Z,27.40
2019-06-20T04:50:33.476Z,26.80
2019-06-20T04:53:02.206Z,27.50
2019-06-20T04:55:31.112Z,27.40
2019-06-20T04:57:59.878Z,27.30
2019-06-20T05:00:28.601Z,28.20
2019-06-20T05:02:57.324Z,29.20
2019-06-20T05:05:26.037Z,30.40
2019-06-20T05:07:54.766Z,31.30
2019-06-20T05:10:23.485Z,30.00
2019-06-20T05:12:55.717Z,29.40
2019-06-20T05:15:22.609Z,27.90
2019-06-20T05:17:51.485Z,28.90
2019-06-20T05:20:20.265Z,30.70
2019-06-20T05:22:49.016Z,30.60
2019-06-20T05:25:17.728Z,31.20
2019-06-20T05:27:46.412Z,31.50
2019-06-20T05:30:15.432Z,30.70
2019-06-20T05:32:44.195Z,32.10
2019-06-20T05:35:12.956Z,33.30
2019-06-20T05:37:41.680Z,32.80
2019-06-20T05:40:10.691Z,33.30
2019-06-20T05:42:39.409Z,33.60
2019-06-20T05:45:14.236Z,34.10
2019-06-20T05:47:42.948Z,34.00
2019-06-20T05:50:13.297Z,32.70
2019-06-20T05:52:42.113Z,32.00
2019-06-20T05:55:10.940Z,32.30
2019-06-20T05:57:40.170Z,31.80
2019-06-20T06:00:10.073Z,33.10
2019-06-20T06:02:39.942Z,31.20
2019-06-20T06:05:08.910Z,31.00
2019-06-20T06:07:37.643Z,31.90
2019-06-20T06:10:08.188Z,33.40
2019-06-20T06:12:36.921Z,32.10
2019-06-20T06:15:09.723Z,32.30
2019-06-20T06:17:38.666Z,32.30
2019-06-20T06:20:08.565Z,33.20
2019-06-20T06:22:37.305Z,33.80
2019-06-20T06:25:07.472Z,32.00
2019-06-20T06:27:36.196Z,30.80
2019-06-20T06:30:12.600Z,31.10
2019-06-20T06:32:41.339Z,30.40
2019-06-20T06:35:10.889Z,31.30
2019-06-20T06:37:40.215Z,31.50
2019-06-20T06:40:11.033Z,29.20
2019-06-20T06:42:39.753Z,28.70
2019-06-20T06:45:09.483Z,29.20
2019-06-20T06:47:38.209Z,30.80
2019-06-20T06:50:08.202Z,31.60
2019-06-20T06:52:36.954Z,30.80
2019-06-20T06:55:06.981Z,32.30
2019-06-20T06:57:35.806Z,31.80
2019-06-20T07:00:09.776Z,30.90
2019-06-20T07:02:38.496Z,30.80
2019-06-20T07:05:08.764Z,32.30
2019-06-20T07:07:37.512Z,31.20
2019-06-20T07:10:07.137Z,33.10
2019-06-20T07:12:35.861Z,34.00
2019-06-20T07:15:07.166Z,33.30
2019-06-20T07:17:35.898Z,34.00
2019-06-20T07:20:06.997Z,34.70
2019-06-20T07:22:36.059Z,35.60
2019-06-20T07:25:17.614Z,35.20
2019-06-20T07:27:46.870Z,35.90
2019-06-20T07:30:16.017Z,35.60
2019-06-20T07:32:44.725Z,35.80
2019-06-20T07:35:13.851Z,34.70
2019-06-20T07:37:42.569Z,35.60
2019-06-20T07:40:12.040Z,35.60
2019-06-20T07:42:40.756Z,36.00
2019-06-20T07:45:10.895Z,33.90
2019-06-20T07:47:39.617Z,34.10
2019-06-20T07:50:08.942Z,34.90
2019-06-20T07:52:37.693Z,35.20
2019-06-20T07:55:08.120Z,35.10
2019-06-20T07:57:36.848Z,32.40
2019-06-20T08:00:09.643Z,32.70
2019-06-20T08:02:38.349Z,33.80
2019-06-20T08:05:08.093Z,32.90
2019-06-20T08:07:36.828Z,32.90
2019-06-20T08:10:18.000Z,33.50
2019-06-20T08:12:46.730Z,34.40
2019-06-20T08:15:17.416Z,34.30
2019-06-20T08:17:46.140Z,35.10
2019-06-20T08:20:16.445Z,37.40
2019-06-20T08:22:45.207Z,36.90
2019-06-20T08:25:14.522Z,35.30
2019-06-20T08:27:55.992Z,35.10
2019-06-20T08:30:31.490Z,35.40
2019-06-20T08:33:01.811Z,34.10
2019-06-20T08:35:31.767Z,33.60
2019-06-20T08:38:01.298Z,35.20
2019-06-20T08:40:33.374Z,34.10
2019-06-20T08:43:02.276Z,34.10
2019-06-20T08:45:34.118Z,32.40
2019-06-20T08:48:02.628Z,33.20
2019-06-20T08:50:31.853Z,32.80
2019-06-20T08:53:01.651Z,31.90
2019-06-20T08:55:30.701Z,32.50
2019-06-20T08:58:01.016Z,33.20
2019-06-20T09:00:31.021Z,33.00
2019-06-20T09:03:00.462Z,34.00
2019-06-20T09:05:30.845Z,34.40
2019-06-20T09:10:41.060Z,33.40
2019-06-20T09:13:12.188Z,34.10
2019-06-20T09:15:41.540Z,32.60
2019-06-20T09:18:10.292Z,32.00
2019-06-20T09:20:39.736Z,31.50
2019-06-20T09:23:08.457Z,30.70
2019-06-20T09:25:37.279Z,30.40
2019-06-20T09:28:06.592Z,31.30
2019-06-20T09:30:36.513Z,31.80
2019-06-20T09:33:05.771Z,31.60
2019-06-20T09:35:34.488Z,30.80
2019-06-20T09:38:03.431Z,31.30
2019-06-20T09:40:32.230Z,31.90
2019-06-20T09:43:00.968Z,31.70
2019-06-20T09:45:29.673Z,32.20
2019-06-20T09:47:58.401Z,32.10
2019-06-20T09:50:27.335Z,32.00
2019-06-20T09:52:56.645Z,32.50
2019-06-20T09:55:25.683Z,32.30
2019-06-20T09:57:55.768Z,32.20
2019-06-20T10:00:26.829Z,31.60
2019-06-20T10:02:56.276Z,31.20
2019-06-20T10:05:25.941Z,31.50
2019-06-20T10:07:54.730Z,31.70
2019-06-20T10:10:28.368Z,31.40
2019-06-20T10:12:57.587Z,31.00
2019-06-20T10:15:29.260Z,30.90
2019-06-20T10:17:58.197Z,31.00
2019-06-20T10:20:27.098Z,31.10
2019-06-20T10:22:57.301Z,31.20
2019-06-20T10:25:26.202Z,31.10
2019-06-20T10:27:54.921Z,31.30
2019-06-20T10:30:24.839Z,31.00
2019-06-20T10:32:53.578Z,31.30
2019-06-20T10:35:23.213Z,31.70
2019-06-20T10:37:52.961Z,30.90
2019-06-20T10:40:22.416Z,31.20
2019-06-20T10:42:52.770Z,31.40
2019-06-20T10:45:23.084Z,31.40
2019-06-20T10:47:52.892Z,31.20
2019-06-20T10:50:22.308Z,31.40
2019-06-20T10:52:51.855Z,31.20
2019-06-20T10:55:20.757Z,31.50
2019-06-20T10:57:49.968Z,31.40
2019-06-20T11:00:30.189Z,31.20
2019-06-20T11:02:51.278Z,31.20
2019-06-20T11:05:20.157Z,30.60
2019-06-20T11:07:49.949Z,30.10
2019-06-20T11:10:19.611Z,30.50
2019-06-20T11:12:54.854Z,30.50
2019-06-20T11:15:20.349Z,30.50
2019-06-20T11:17:49.103Z,30.10
2019-06-20T11:20:18.333Z,30.10
2019-06-20T11:22:47.793Z,30.40
2019-06-20T11:25:19.317Z,30.90
2019-06-20T11:27:47.802Z,31.40
2019-06-20T11:30:27.553Z,31.40
2019-06-20T11:32:56.289Z,31.20
2019-06-20T11:35:25.003Z,30.60
2019-06-20T11:37:53.725Z,29.80
2019-06-20T11:40:22.857Z,29.40
2019-06-20T11:42:51.731Z,30.00
2019-06-20T11:45:21.115Z,30.40
2019-06-20T11:47:49.841Z,30.20
2019-06-20T11:50:20.224Z,30.10
2019-06-20T11:52:48.970Z,30.20
2019-06-20T11:55:18.711Z,30.70
2019-06-20T11:57:47.591Z,30.90
2019-06-20T12:00:16.940Z,30.70
2019-06-20T12:02:46.200Z,30.80
2019-06-20T12:05:16.754Z,30.90
2019-06-20T12:07:47.447Z,30.90
2019-06-20T12:10:16.420Z,30.50
2019-06-20T12:12:45.136Z,30.20
2019-06-20T12:15:14.561Z,30.40
2019-06-20T12:17:43.832Z,30.40
2019-06-20T12:20:15.994Z,30.40
2019-06-20T12:22:45.037Z,30.70
2019-06-20T12:25:15.711Z,30.60
2019-06-20T12:27:45.373Z,30.60
2019-06-20T12:30:19.141Z,31.00
2019-06-20T12:32:49.175Z,30.80
2019-06-20T12:35:18.188Z,30.40
2019-06-20T12:37:47.790Z,30.40
2019-06-20T12:40:17.338Z,30.60
2019-06-20T12:42:46.746Z,30.70
2019-06-20T12:45:16.303Z,30.70
2019-06-20T12:47:46.062Z,31.00
2019-06-20T12:50:15.564Z,30.80
2019-06-20T12:52:45.376Z,30.60
2019-06-20T12:55:14.536Z,30.70
2019-06-20T12:57:44.157Z,30.10
2019-06-20T13:00:15.197Z,29.80
2019-06-20T13:02:45.362Z,30.00
2019-06-20T13:05:15.929Z,30.20
2019-06-20T13:07:46.234Z,30.40
2019-06-20T13:10:15.830Z,30.00
2019-06-20T13:12:44.541Z,30.30
2019-06-20T13:15:13.494Z,30.60
2019-06-20T13:17:43.643Z,30.20
2019-06-20T13:20:14.588Z,29.90
2019-06-20T13:22:44.635Z,29.90
2019-06-20T13:25:14.207Z,30.10
2019-06-20T13:27:43.447Z,30.00
2019-06-20T13:30:13.063Z,30.10
2019-06-20T13:32:43.343Z,30.00
2019-06-20T13:35:14.002Z,30.00
2019-06-20T13:37:43.490Z,30.00
2019-06-20T13:40:13.900Z,30.20
2019-06-20T13:42:44.170Z,30.10
2019-06-20T13:45:22.307Z,30.10
2019-06-20T13:47:51.336Z,30.00
2019-06-20T13:50:22.662Z,30.10
2019-06-20T13:52:52.085Z,30.20
2019-06-20T13:55:20.812Z,30.50
2019-06-20T13:57:49.599Z,30.60
2019-06-20T14:00:20.876Z,30.70
2019-06-20T14:02:51.311Z,30.80
2019-06-20T14:05:20.372Z,30.50
2019-06-20T14:07:53.177Z,30.40
2019-06-20T14:10:19.569Z,30.50
2019-06-20T14:12:48.753Z,30.30
2019-06-20T14:15:18.319Z,30.10
2019-06-20T14:17:47.609Z,30.10
2019-06-20T14:20:17.972Z,29.80
2019-06-20T14:22:46.692Z,29.80
2019-06-20T14:25:15.888Z,29.60
2019-06-20T14:27:46.020Z,29.50
2019-06-20T14:30:16.394Z,29.50
2019-06-20T14:32:45.123Z,29.30
2019-06-20T14:35:13.940Z,29.20
2019-06-20T14:37:44.279Z,29.30
2019-06-20T14:40:13.334Z,29.30
2019-06-20T14:42:42.975Z,29.20
2019-06-20T14:45:12.536Z,29.10
2019-06-20T14:47:41.267Z,29.00
2019-06-20T14:50:10.576Z,29.20
2019-06-20T14:52:39.345Z,29.20
2019-06-20T14:55:09.235Z,29.30
2019-06-20T14:57:38.091Z,29.20
2019-06-20T15:00:08.106Z,29.20
2019-06-20T15:02:38.866Z,29.20
2019-06-20T15:05:10.428Z,29.30
2019-06-20T15:07:39.253Z,29.40
2019-06-20T15:10:08.185Z,29.50
2019-06-20T15:12:36.914Z,29.60
2019-06-20T15:15:08.863Z,29.30
2019-06-20T15:17:36.726Z,29.00
2019-06-20T15:20:06.865Z,29.10
2019-06-20T15:22:35.589Z,29.20
2019-06-20T15:25:08.582Z,29.10
2019-06-20T15:27:37.301Z,29.30
2019-06-20T15:30:07.788Z,29.30
2019-06-20T15:32:36.518Z,29.10
2019-06-20T15:35:10.296Z,29.10
2019-06-20T15:37:39.016Z,28.90
2019-06-20T15:40:09.845Z,28.70
2019-06-20T15:42:38.572Z,28.70
2019-06-20T15:45:08.210Z,28.70
2019-06-20T15:47:37.124Z,28.80
2019-06-20T15:50:08.429Z,28.70
2019-06-20T15:52:37.154Z,28.70
2019-06-20T15:55:06.999Z,28.70
2019-06-20T15:57:35.782Z,28.80
2019-06-20T16:00:10.014Z,28.70
2019-06-20T16:02:38.732Z,28.70
2019-06-20T16:05:09.380Z,28.70
2019-06-20T16:07:38.312Z,28.60
2019-06-20T16:10:08.848Z,28.60
2019-06-20T16:12:37.672Z,28.70
2019-06-20T16:15:08.460Z,28.50
2019-06-20T16:17:37.180Z,28.40
2019-06-20T16:20:07.704Z,28.30
2019-06-20T16:22:36.442Z,28.40
2019-06-20T16:25:06.599Z,28.40
2019-06-20T16:27:35.308Z,28.40
2019-06-20T16:30:06.605Z,28.40
2019-06-20T16:32:35.328Z,28.40
2019-06-20T16:35:06.344Z,28.30
2019-06-20T16:37:35.088Z,28.30
2019-06-20T16:40:05.488Z,28.40
2019-06-20T16:42:34.207Z,28.50
2019-06-20T16:45:02.968Z,28.50
2019-06-20T16:47:31.655Z,28.50
2019-06-20T16:50:00.545Z,28.50
2019-06-20T16:52:29.265Z,28.40
2019-06-20T16:54:58.026Z,28.40
2019-06-20T16:57:26.729Z,28.30
2019-06-20T16:59:55.472Z,28.30
2019-06-20T17:02:24.312Z,28.20
2019-06-20T17:04:55.764Z,28.20
2019-06-20T17:07:23.444Z,28.10
2019-06-20T17:09:52.167Z,28.10
2019-06-20T17:12:20.887Z,27.90
2019-06-20T17:14:49.642Z,26.90
2019-06-20T17:17:18.495Z,26.40
2019-06-20T17:19:47.282Z,25.90
2019-06-20T17:22:16.044Z,25.40
2019-06-20T17:24:44.753Z,25.10
2019-06-20T17:27:13.494Z,24.30
2019-06-20T17:29:42.246Z,22.70
2019-06-20T17:32:10.992Z,21.80
2019-06-20T17:34:39.727Z,21.40
2019-06-20T17:37:08.442Z,21.10
2019-06-20T17:39:37.179Z,20.80
2019-06-20T17:42:05.903Z,20.40
2019-06-20T17:44:34.626Z,20.20
2019-06-20T17:47:06.084Z,20.30
2019-06-20T17:49:34.834Z,20.40
2019-06-20T17:52:06.691Z,20.30
2019-06-20T17:54:35.428Z,20.20
2019-06-20T17:57:04.264Z,20.20
2019-06-20T17:59:34.678Z,20.10
2019-06-20T18:02:04.993Z,20.20
2019-06-20T18:04:33.727Z,20.30
2019-06-20T18:07:02.532Z,20.30
2019-06-20T18:09:31.310Z,20.40
2019-06-20T18:11:59.996Z,20.40
2019-06-20T18:14:28.732Z,20.40
2019-06-20T18:16:57.499Z,20.40
2019-06-20T18:19:26.231Z,20.40
2019-06-20T18:21:55.032Z,20.30
2019-06-20T18:24:23.758Z,20.30
2019-06-20T18:26:52.536Z,20.20
2019-06-20T18:29:21.275Z,20.10
2019-06-20T18:31:50.019Z,20.00
2019-06-20T18:34:29.643Z,20.00
2019-06-20T18:36:49.130Z,20.00
2019-06-20T18:39:17.926Z,20.00
2019-06-20T18:41:47.482Z,19.90
2019-06-20T18:44:16.265Z,19.90
2019-06-20T18:46:45.019Z,20.00
2019-06-20T18:49:13.777Z,20.10
2019-06-20T18:51:43.418Z,20.00
2019-06-20T18:54:12.191Z,20.00
2019-06-20T18:56:40.940Z,20.10
2019-06-20T18:59:09.677Z,20.00
2019-06-20T19:01:38.479Z,20.00
2019-06-20T19:04:07.224Z,20.00
2019-06-20T19:06:36.560Z,20.20
2019-06-20T19:09:09.783Z,20.20
2019-06-20T19:11:38.565Z,20.30
2019-06-20T19:14:07.313Z,20.30
2019-06-20T19:16:36.050Z,20.30
2019-06-20T19:19:05.070Z,20.40
2019-06-20T19:21:33.801Z,20.40
2019-06-20T19:24:02.565Z,20.40
2019-06-20T19:26:31.299Z,20.20
2019-06-20T19:29:00.024Z,20.10
2019-06-20T19:31:28.754Z,20.10
2019-06-20T19:33:57.518Z,20.00
2019-06-20T19:36:26.303Z,20.00
2019-06-20T19:38:55.024Z,20.00
2019-06-20T19:41:24.756Z,20.00
2019-06-20T19:43:54.774Z,19.90
2019-06-20T19:46:23.826Z,19.90
2019-06-20T19:48:52.548Z,19.80
2019-06-20T19:51:21.301Z,19.80
2019-06-20T19:53:50.018Z,19.80
2019-06-20T19:56:18.749Z,19.90
2019-06-20T19:58:47.519Z,19.70
2019-06-20T20:01:16.245Z,19.70
2019-06-20T20:03:44.985Z,19.70
2019-06-20T20:06:14.047Z,19.70
2019-06-20T20:08:42.779Z,19.60
2019-06-20T20:11:11.593Z,19.60
2019-06-20T20:13:40.341Z,19.50
2019-06-20T20:16:09.174Z,19.50
2019-06-20T20:18:37.965Z,19.60
2019-06-20T20:21:06.757Z,19.50
2019-06-20T20:23:35.479Z,19.50
2019-06-20T20:26:04.293Z,19.50
2019-06-20T20:28:33.020Z,19.50
2019-06-20T20:31:01.985Z,19.60
2019-06-20T20:33:30.706Z,19.60
2019-06-20T20:36:01.901Z,19.60
2019-06-20T20:38:30.141Z,19.60
2019-06-20T20:40:59.037Z,19.60
2019-06-20T20:43:27.787Z,19.60
2019-06-20T20:45:56.520Z,19.50
2019-06-20T20:48:25.241Z,19.60
2019-06-20T20:50:53.967Z,19.60
2019-06-20T20:53:22.697Z,19.50
2019-06-20T20:55:51.464Z,19.50
2019-06-20T20:58:20.299Z,19.40
2019-06-20T21:01:03.873Z,19.40
2019-06-20T21:03:34.510Z,19.40
2019-06-20T21:06:03.330Z,19.40
2019-06-20T21:08:32.937Z,19.30
2019-06-20T21:11:01.701Z,19.40
2019-06-20T21:13:30.470Z,19.30
2019-06-20T21:16:00.808Z,19.30
2019-06-20T21:18:29.576Z,19.20
2019-06-20T21:20:58.392Z,19.10
2019-06-20T21:23:27.528Z,19.20
2019-06-20T21:25:56.263Z,19.20
2019-06-20T21:28:24.980Z,19.20
2019-06-20T21:30:53.740Z,19.20
2019-06-20T21:33:22.474Z,19.20
2019-06-20T21:36:06.952Z,19.10
2019-06-20T21:38:21.495Z,19.20
2019-06-20T21:40:50.220Z,19.10
2019-06-20T21:43:18.936Z,19.10
2019-06-20T21:45:47.668Z,19.30
2019-06-20T21:48:16.424Z,19.30
2019-06-20T21:50:45.944Z,19.20
2019-06-20T21:53:14.691Z,19.20
2019-06-20T21:55:43.418Z,19.10
2019-06-20T21:58:12.149Z,19.20
2019-06-20T22:00:44.857Z,19.20
2019-06-20T22:03:13.762Z,19.10
2019-06-20T22:05:42.504Z,19.10
2019-06-20T22:08:11.343Z,19.10
2019-06-20T22:10:40.091Z,19.10
2019-06-20T22:13:08.972Z,19.10
2019-06-20T22:15:37.900Z,19.10
2019-06-20T22:18:06.720Z,19.10
2019-06-20T22:20:35.452Z,19.10
2019-06-20T22:23:04.713Z,19.10
2019-06-20T22:25:33.441Z,19.10
2019-06-20T22:28:02.360Z,19.20
2019-06-20T22:30:45.810Z,19.20
2019-06-20T22:33:14.534Z,19.30
2019-06-20T22:35:45.877Z,19.20
2019-06-20T22:38:14.766Z,19.20
2019-06-20T22:40:43.609Z,19.20
2019-06-20T22:43:12.427Z,19.20
2019-06-20T22:45:41.156Z,19.20
2019-06-20T22:48:09.898Z,19.10
2019-06-20T22:50:38.616Z,19.10
2019-06-20T22:53:07.349Z,19.00
2019-06-20T22:55:36.271Z,19.00
2019-06-20T22:58:06.027Z,19.00
2019-06-20T23:00:34.953Z,19.00
2019-06-20T23:03:04.884Z,18.90
2019-06-20T23:05:33.608Z,18.90
2019-06-20T23:08:02.528Z,18.90
2019-06-20T23:10:31.262Z,18.90
2019-06-20T23:12:59.988Z,18.80
2019-06-20T23:15:28.751Z,18.80
2019-06-20T23:17:57.471Z,18.80
2019-06-20T23:20:26.300Z,18.70
2019-06-20T23:22:55.032Z,18.80
2019-06-20T23:25:23.756Z,18.70
2019-06-20T23:27:52.480Z,18.70
2019-06-20T23:30:21.618Z,18.80
2019-06-20T23:32:50.374Z,18.70
2019-06-20T23:35:19.104Z,18.80
2019-06-20T23:37:47.872Z,18.70
2019-06-20T23:40:16.668Z,18.70
2019-06-20T23:42:45.395Z,18.70
2019-06-20T23:45:14.717Z,18.80
2019-06-20T23:47:43.438Z,18.70
2019-06-20T23:50:14.449Z,18.70
2019-06-20T23:52:44.776Z,18.70
2019-06-20T23:55:13.532Z,18.70
2019-06-20T23:57:42.247Z,18.60
